Time;durP1;ratioP1;P1;durP2;ratioP2;P2;SDS_P1;SDS_P2;PMS_P1;PMS_P2;Temp;Humidity;BMP_temperature;BMP_pressure;BME280_temperature;BME280_humidity;BME280_pressure;Samples;Min_cycle;Max_cycle;Signal;HPM_P1;HPM_P2
2020/12/31 00:00:07;;;;;;;5.68;2.50;;;;;;;1.81;nan;95640.66;4939562;28;20541;-67
2020/12/31 00:02:34;;;;;;;4.03;2.53;;;;;;;1.95;nan;95643.44;4942720;28;20925;-68
2020/12/31 00:05:02;;;;;;;4.63;2.58;;;;;;;1.99;nan;95644.97;4940947;28;20311;-68
2020/12/31 00:07:29;;;;;;;3.88;2.60;;;;;;;2.11;nan;95641.84;4938375;28;20302;-68
2020/12/31 00:09:56;;;;;;;4.80;2.38;;;;;;;2.16;nan;95645.06;4940296;28;20677;-71
2020/12/31 00:12:22;;;;;;;9.13;2.50;;;;;;;2.24;nan;95645.53;4939049;28;20325;-69
2020/12/31 00:14:49;;;;;;;3.35;2.38;;;;;;;2.37;nan;95638.13;4942381;28;20306;-70
2020/12/31 00:17:16;;;;;;;3.33;2.58;;;;;;;2.32;nan;95610.09;4940335;28;20769;-69
2020/12/31 00:19:46;;;;;;;5.32;2.95;;;;;;;2.49;nan;95633.25;4943616;28;20218;-69
2020/12/31 00:22:14;;;;;;;3.75;3.10;;;;;;;2.42;nan;95629.28;4943021;28;20896;-69
2020/12/31 00:24:41;;;;;;;5.30;3.15;;;;;;;2.42;nan;95631.03;4940632;28;20307;-70
2020/12/31 00:27:07;;;;;;;4.35;2.85;;;;;;;2.51;nan;95626.28;4938483;28;20254;-69
2020/12/31 00:29:34;;;;;;;3.97;2.95;;;;;;;2.44;nan;95627.47;4940000;28;20283;-69
2020/12/31 00:32:01;;;;;;;5.55;3.60;;;;;;;2.37;nan;95628.66;4940826;28;20301;-70
2020/12/31 00:34:28;;;;;;;6.07;3.78;;;;;;;2.25;nan;95629.25;4939220;28;20289;-69
2020/12/31 00:36:55;;;;;;;6.18;3.38;;;;;;;2.15;nan;95622.84;4948991;28;20250;-70
2020/12/31 00:39:22;;;;;;;3.70;2.45;;;;;;;2.12;nan;95628.13;4939360;28;20294;-69
2020/12/31 00:41:49;;;;;;;4.63;3.25;;;;;;;2.07;nan;95618.97;4938247;28;20338;-70
2020/12/31 00:44:16;;;;;;;3.67;3.03;;;;;;;2.08;nan;95620.63;4939622;28;20602;-70
2020/12/31 00:46:43;;;;;;;6.85;3.03;;;;;;;2.08;nan;95616.34;4942096;28;20261;-70
2020/12/31 00:49:10;;;;;;;8.13;3.45;;;;;;;2.07;nan;95617.22;4938724;28;20199;-69
2020/12/31 00:51:37;;;;;;;4.53;3.45;;;;;;;2.04;nan;95613.97;4938720;28;20737;-69
2020/12/31 00:54:04;;;;;;;10.13;3.20;;;;;;;2.01;nan;95614.13;4938215;28;20238;-68
2020/12/31 00:56:32;;;;;;;5.13;3.03;;;;;;;2.13;nan;95609.25;4938907;28;20306;-69
2020/12/31 00:58:59;;;;;;;7.57;3.58;;;;;;;2.17;nan;95608.22;4937919;28;20876;-69
2020/12/31 01:01:25;;;;;;;7.03;3.88;;;;;;;2.31;nan;95613.56;4942928;28;20223;-69
2020/12/31 01:03:52;;;;;;;6.10;3.53;;;;;;;2.27;nan;95612.03;4942420;28;20706;-69
2020/12/31 01:06:19;;;;;;;6.63;3.90;;;;;;;2.29;nan;95610.22;4940846;28;20287;-69
2020/12/31 01:08:46;;;;;;;5.32;3.00;;;;;;;2.43;nan;95612.97;4930685;28;20234;-69
2020/12/31 01:11:13;;;;;;;6.18;3.67;;;;;;;2.38;nan;95609.81;4938153;28;20584;-69
2020/12/31 01:13:41;;;;;;;4.32;3.05;;;;;;;2.38;nan;95614.09;4944755;28;20228;-69
2020/12/31 01:16:10;;;;;;;4.45;3.05;;;;;;;2.39;nan;95608.91;4939352;28;20569;-69
2020/12/31 01:18:37;;;;;;;6.72;3.97;;;;;;;2.33;nan;95611.75;4946410;28;20242;-68
2020/12/31 01:21:09;;;;;;;6.20;3.65;;;;;;;2.28;nan;95608.56;4942612;28;20678;-69
2020/12/31 01:23:36;;;;;;;6.03;3.20;;;;;;;2.34;nan;95610.00;4935812;28;20651;-68
2020/12/31 01:26:03;;;;;;;8.98;4.28;;;;;;;2.38;nan;95604.69;4934118;28;20196;-70
2020/12/31 01:28:30;;;;;;;4.65;3.05;;;;;;;2.26;nan;95599.25;4936764;28;20241;-69
2020/12/31 01:30:57;;;;;;;4.78;2.97;;;;;;;2.29;nan;95601.69;4937784;28;20318;-70
2020/12/31 01:33:24;;;;;;;7.15;3.60;;;;;;;2.16;nan;95588.59;4937593;28;20558;-69
2020/12/31 01:35:51;;;;;;;4.70;3.40;;;;;;;2.11;nan;95592.25;4937777;28;20286;-69
2020/12/31 01:38:17;;;;;;;3.35;2.20;;;;;;;2.13;nan;95588.72;4937136;28;20790;-69
2020/12/31 01:40:47;;;;;;;4.15;2.30;;;;;;;1.96;nan;95580.13;4938071;28;20290;-70
2020/12/31 01:43:14;;;;;;;2.67;2.13;;;;;;;2.01;nan;95581.59;4936943;28;20282;-69
2020/12/31 01:45:41;;;;;;;4.95;2.80;;;;;;;1.99;nan;95585.94;4938280;28;20823;-70
2020/12/31 01:48:09;;;;;;;6.15;2.90;;;;;;;1.92;nan;95569.16;4939631;28;20251;-69
2020/12/31 01:50:36;;;;;;;7.07;3.22;;;;;;;1.95;nan;95574.19;4942130;28;20203;-69
2020/12/31 01:53:03;;;;;;;3.83;2.70;;;;;;;1.80;nan;95572.31;4937868;28;20222;-69
2020/12/31 01:55:32;;;;;;;4.57;2.60;;;;;;;1.74;nan;95579.41;4937604;28;20690;-68
2020/12/31 01:57:58;;;;;;;3.83;2.30;;;;;;;1.73;nan;95588.88;4936734;28;20729;-67
2020/12/31 02:00:25;;;;;;;6.65;2.83;;;;;;;1.69;nan;95584.75;4945445;28;20207;-68
2020/12/31 02:02:52;;;;;;;4.35;3.05;;;;;;;1.61;nan;95574.00;4941402;28;20242;-69
2020/12/31 02:05:20;;;;;;;4.80;3.15;;;;;;;1.59;nan;95573.25;4941170;28;20231;-69
2020/12/31 02:07:48;;;;;;;6.65;3.33;;;;;;;1.53;nan;95576.06;4941616;28;20309;-69
2020/12/31 02:10:15;;;;;;;3.33;2.33;;;;;;;1.54;nan;95582.03;4937245;28;20306;-68
2020/12/31 02:12:42;;;;;;;6.30;4.30;;;;;;;1.55;nan;95579.41;4937079;28;20254;-68
2020/12/31 02:15:14;;;;;;;4.65;3.05;;;;;;;1.48;nan;95578.00;4942106;28;20217;-68
2020/12/31 02:17:43;;;;;;;5.13;3.40;;;;;;;1.44;nan;95576.47;4936151;28;20623;-70
2020/12/31 02:20:10;;;;;;;5.53;3.25;;;;;;;1.41;nan;95576.59;4944810;28;20693;-68
2020/12/31 02:22:38;;;;;;;8.10;3.85;;;;;;;1.42;nan;95573.13;4939696;28;20690;-70
2020/12/31 02:25:05;;;;;;;5.63;3.35;;;;;;;1.43;nan;95573.97;4932453;28;20485;-69
2020/12/31 02:27:32;;;;;;;6.43;3.97;;;;;;;1.41;nan;95571.47;4936607;28;20314;-68
2020/12/31 02:29:59;;;;;;;5.28;3.60;;;;;;;1.39;nan;95575.84;4940748;28;20241;-69
2020/12/31 02:32:26;;;;;;;7.03;3.55;;;;;;;1.38;nan;95587.00;4942474;28;20584;-69
2020/12/31 02:34:53;;;;;;;7.82;4.05;;;;;;;1.34;nan;95575.19;4945594;28;20238;-68
2020/12/31 02:37:19;;;;;;;10.55;4.28;;;;;;;1.26;nan;95579.81;4939833;28;20689;-69
2020/12/31 02:39:47;;;;;;;11.82;3.58;;;;;;;1.22;nan;95583.41;4941702;28;20618;-69
2020/12/31 02:42:14;;;;;;;6.80;4.32;;;;;;;1.21;nan;95578.34;4940419;28;20630;-68
2020/12/31 02:44:40;;;;;;;8.02;3.58;;;;;;;1.20;nan;95587.75;4944134;28;20326;-69
2020/12/31 02:47:07;;;;;;;12.02;5.13;;;;;;;1.19;nan;95577.59;4940163;28;20333;-69
2020/12/31 02:49:34;;;;;;;6.30;4.35;;;;;;;1.19;nan;95580.97;4941975;28;20283;-68
2020/12/31 02:52:01;;;;;;;6.10;2.90;;;;;;;1.18;nan;95575.94;4940990;28;20244;-68
2020/12/31 02:54:28;;;;;;;4.25;2.70;;;;;;;1.25;nan;95555.09;4945831;28;20602;-68
2020/12/31 02:56:55;;;;;;;5.65;3.53;;;;;;;1.21;nan;95553.56;4944606;28;20999;-68
2020/12/31 02:59:22;;;;;;;5.55;3.08;;;;;;;1.22;nan;95555.22;4940131;28;20797;-69
2020/12/31 03:01:54;;;;;;;6.20;3.80;;;;;;;1.16;nan;95562.34;4939092;28;20302;-68
2020/12/31 03:04:21;;;;;;;6.40;4.05;;;;;;;1.18;nan;95563.94;4941527;28;20718;-69
2020/12/31 03:06:48;;;;;;;4.93;3.40;;;;;;;1.19;nan;95557.91;4940775;28;20570;-68
2020/12/31 03:09:15;;;;;;;6.38;3.97;;;;;;;1.17;nan;95554.59;4940797;28;20718;-69
2020/12/31 03:11:41;;;;;;;6.43;3.53;;;;;;;1.19;nan;95557.91;4940849;28;20649;-68
2020/12/31 03:14:09;;;;;;;6.88;3.72;;;;;;;1.22;nan;95559.50;4941354;28;20290;-68
2020/12/31 03:16:36;;;;;;;7.45;3.83;;;;;;;1.19;nan;95550.22;4939642;28;20847;-68
2020/12/31 03:19:03;;;;;;;7.43;4.07;;;;;;;1.13;nan;95547.94;4934035;28;20199;-71
2020/12/31 03:21:30;;;;;;;9.63;4.25;;;;;;;1.16;nan;95552.09;4940380;28;20776;-69
2020/12/31 03:23:57;;;;;;;5.43;3.30;;;;;;;1.16;nan;95547.81;4940807;28;20235;-69
2020/12/31 03:26:24;;;;;;;8.25;4.20;;;;;;;1.16;nan;95544.41;4939373;28;20257;-69
2020/12/31 03:28:50;;;;;;;8.57;3.63;;;;;;;1.21;nan;95547.59;4946264;28;20314;-69
2020/12/31 03:31:18;;;;;;;6.15;3.10;;;;;;;1.20;nan;95554.44;4938675;28;20306;-69
2020/12/31 03:33:45;;;;;;;5.75;3.15;;;;;;;1.21;nan;95548.44;4939635;28;20231;-69
2020/12/31 03:36:12;;;;;;;6.50;3.50;;;;;;;1.16;nan;95535.00;4940072;28;20214;-68
2020/12/31 03:38:39;;;;;;;8.10;3.17;;;;;;;1.19;nan;95534.84;4939524;28;20630;-69
2020/12/31 03:41:06;;;;;;;7.43;3.83;;;;;;;1.19;nan;95534.84;4946028;28;20625;-68
2020/12/31 03:43:33;;;;;;;8.25;3.95;;;;;;;1.12;nan;95543.69;4940218;28;20792;-69
2020/12/31 03:46:00;;;;;;;6.32;2.97;;;;;;;1.10;nan;95535.25;4940626;28;20598;-70
2020/12/31 03:48:27;;;;;;;5.78;3.10;;;;;;;0.99;nan;95527.22;4938730;28;20261;-69
2020/12/31 03:50:54;;;;;;;9.20;3.58;;;;;;;0.99;nan;95522.09;4940266;28;20616;-69
2020/12/31 03:53:21;;;;;;;6.30;3.05;;;;;;;0.90;nan;95516.50;4939964;28;20286;-69
2020/12/31 03:55:48;;;;;;;5.32;3.63;;;;;;;0.86;nan;95514.97;4938417;28;20192;-68
2020/12/31 03:58:15;;;;;;;7.55;3.42;;;;;;;0.85;nan;95511.59;4938789;28;20257;-70
2020/12/31 04:00:41;;;;;;;7.93;3.08;;;;;;;0.89;nan;95515.66;4938797;28;20706;-69
2020/12/31 04:03:08;;;;;;;6.25;2.83;;;;;;;0.87;nan;95499.53;4939628;28;20258;-69
2020/12/31 04:05:36;;;;;;;6.57;3.00;;;;;;;0.92;nan;95500.19;4940286;28;20235;-68
2020/12/31 04:08:03;;;;;;;5.72;3.10;;;;;;;0.98;nan;95499.09;4938323;28;20229;-69
2020/12/31 04:10:30;;;;;;;6.50;2.83;;;;;;;1.02;nan;95496.31;4938352;28;20672;-69
2020/12/31 04:12:56;;;;;;;5.13;3.05;;;;;;;1.02;nan;95493.75;4938202;28;20662;-68
2020/12/31 04:15:23;;;;;;;7.47;2.85;;;;;;;0.96;nan;95500.88;4939705;28;20250;-69
2020/12/31 04:17:50;;;;;;;5.78;3.88;;;;;;;0.91;nan;95488.28;4938991;28;20335;-68
2020/12/31 04:20:17;;;;;;;6.07;2.92;;;;;;;0.96;nan;95486.34;4939618;28;20689;-68
2020/12/31 04:22:44;;;;;;;4.38;3.35;;;;;;;0.95;nan;95487.25;4938373;28;20632;-69
2020/12/31 04:25:11;;;;;;;6.22;2.50;;;;;;;0.90;nan;95480.66;4939331;28;20230;-68
2020/12/31 04:27:38;;;;;;;13.85;5.53;;;;;;;0.90;nan;95476.34;4939176;28;20725;-68
2020/12/31 04:30:05;;;;;;;13.07;5.88;;;;;;;0.65;nan;95449.28;4938071;28;20697;-68
2020/12/31 04:32:32;;;;;;;10.15;5.00;;;;;;;0.88;nan;95470.47;4937826;28;20322;-68
2020/12/31 04:34:59;;;;;;;4.57;3.15;;;;;;;0.85;nan;95470.63;4938892;28;20234;-68
2020/12/31 04:37:25;;;;;;;9.10;3.75;;;;;;;0.71;nan;95467.81;4937653;28;20305;-69
2020/12/31 04:39:53;;;;;;;8.68;4.35;;;;;;;0.74;nan;95475.34;4938309;28;20527;-68
2020/12/31 04:42:20;;;;;;;9.38;3.63;;;;;;;0.68;nan;95465.34;4937397;28;20326;-69
2020/12/31 04:44:47;;;;;;;10.70;3.05;;;;;;;0.71;nan;95470.38;4936260;28;20602;-69
2020/12/31 04:47:19;;;;;;;7.05;2.40;;;;;;;0.58;nan;95463.25;4937323;28;20666;-69
2020/12/31 04:49:51;;;;;;;4.07;2.65;;;;;;;0.61;nan;95461.38;4935772;28;20286;-68
2020/12/31 04:52:18;;;;;;;5.85;3.40;;;;;;;0.63;nan;95472.41;4938471;28;20254;-68
2020/12/31 04:54:45;;;;;;;8.85;5.15;;;;;;;0.53;nan;95466.00;4936224;28;20199;-67
2020/12/31 04:57:13;;;;;;;5.10;2.50;;;;;;;0.60;nan;95464.84;4941670;28;20219;-69
2020/12/31 04:59:41;;;;;;;4.85;2.88;;;;;;;0.61;nan;95463.94;4938510;28;20254;-68
2020/12/31 05:02:08;;;;;;;10.75;3.17;;;;;;;0.67;nan;95468.00;4938216;28;20251;-69
2020/12/31 05:04:34;;;;;;;7.25;3.40;;;;;;;0.58;nan;95458.13;4937347;28;20203;-68
2020/12/31 05:07:02;;;;;;;3.92;2.55;;;;;;;0.57;nan;95456.47;4937857;28;20531;-69
2020/12/31 05:09:29;;;;;;;5.63;2.85;;;;;;;0.59;nan;95457.25;4937851;28;20735;-68
2020/12/31 05:11:56;;;;;;;4.38;2.85;;;;;;;0.61;nan;95458.03;4938424;28;20671;-68
2020/12/31 05:14:30;;;;;;;5.25;2.58;;;;;;;0.58;nan;95451.28;4938753;28;20656;-69
2020/12/31 05:17:12;;;;;;;10.25;3.20;;;;;;;0.59;nan;95452.94;4937830;28;20619;-69
2020/12/31 05:19:39;;;;;;;7.80;3.72;;;;;;;0.61;nan;95452.91;4938048;28;20242;-69
2020/12/31 05:22:14;;;;;;;6.50;2.85;;;;;;;0.60;nan;95457.16;4939078;28;20331;-68
2020/12/31 05:24:42;;;;;;;4.65;2.70;;;;;;;0.65;nan;95454.41;4936871;28;20234;-68
2020/12/31 05:27:20;;;;;;;5.95;2.70;;;;;;;0.55;nan;95453.16;4938623;28;20575;-68
2020/12/31 05:30:01;;;;;;;6.40;3.78;;;;;;;0.52;nan;95448.16;4935149;28;20698;-68
2020/12/31 05:32:30;;;;;;;4.72;2.97;;;;;;;0.57;nan;95436.84;4937519;28;20262;-69
2020/12/31 05:34:57;;;;;;;8.48;3.08;;;;;;;0.53;nan;95430.16;4937926;28;20525;-68
2020/12/31 05:37:25;;;;;;;4.57;2.40;;;;;;;0.44;nan;95440.81;4936125;28;20313;-68
2020/12/31 05:40:00;;;;;;;4.43;2.75;;;;;;;0.41;nan;95434.97;4938354;28;20249;-68
2020/12/31 05:42:29;;;;;;;7.03;3.33;;;;;;;0.37;nan;95439.38;4937169;28;20223;-68
2020/12/31 05:45:09;;;;;;;4.70;2.65;;;;;;;0.33;nan;95440.44;4938086;28;20517;-69
2020/12/31 05:47:44;;;;;;;5.15;3.20;;;;;;;0.32;nan;95435.38;4937322;28;20225;-69
2020/12/31 05:50:22;;;;;;;4.45;2.80;;;;;;;0.31;nan;95434.53;4932993;28;20631;-68
2020/12/31 05:52:50;;;;;;;4.28;2.65;;;;;;;0.20;nan;95431.59;4937027;28;20269;-68
2020/12/31 05:55:18;;;;;;;6.28;2.67;;;;;;;0.20;nan;95429.03;4936738;28;20636;-68
2020/12/31 05:57:47;;;;;;;6.07;2.65;;;;;;;0.31;nan;95434.53;4937022;28;20761;-67
2020/12/31 06:00:17;;;;;;;9.55;2.85;;;;;;;0.30;nan;95437.97;4938412;28;20191;-68
2020/12/31 06:02:47;;;;;;;6.07;3.45;;;;;;;0.30;nan;95437.16;4935703;28;20626;-68
2020/12/31 06:05:15;;;;;;;4.43;3.00;;;;;;;0.32;nan;95425.13;4937133;28;20662;-67
2020/12/31 06:07:44;;;;;;;5.43;3.15;;;;;;;0.36;nan;95424.09;4935462;28;20234;-66
2020/12/31 06:10:14;;;;;;;5.20;2.60;;;;;;;0.28;nan;95406.53;4937713;28;20630;-67
2020/12/31 06:13:03;;;;;;;5.28;3.05;;;;;;;0.26;nan;95413.44;4936254;28;20235;-68
2020/12/31 06:15:33;;;;;;;4.93;2.83;;;;;;;0.26;nan;95421.09;4936572;28;20203;-68
2020/12/31 06:18:03;;;;;;;7.07;2.92;;;;;;;0.29;nan;95415.84;4936593;28;20621;-68
2020/12/31 06:20:32;;;;;;;4.90;2.70;;;;;;;0.27;nan;95416.81;4938201;28;20669;-68
2020/12/31 06:23:04;;;;;;;5.18;2.85;;;;;;;0.29;nan;95418.41;4936672;28;20322;-68
2020/12/31 06:25:37;;;;;;;5.65;2.85;;;;;;;0.26;nan;95410.88;4937611;28;20598;-67
2020/12/31 06:28:09;;;;;;;5.07;2.97;;;;;;;0.30;nan;95407.28;4932033;28;20227;-68
2020/12/31 06:30:38;;;;;;;5.40;3.05;;;;;;;0.22;nan;95399.09;4937184;28;20604;-70
2020/12/31 06:33:14;;;;;;;4.53;2.78;;;;;;;0.32;nan;95415.72;4932146;28;20301;-68
2020/12/31 06:35:42;;;;;;;6.53;3.15;;;;;;;0.28;nan;95409.06;4936174;28;20577;-68
2020/12/31 06:38:09;;;;;;;5.88;3.70;;;;;;;0.27;nan;95411.69;4937270;28;20644;-67
2020/12/31 06:40:37;;;;;;;8.05;4.07;;;;;;;0.29;nan;95415.00;4937980;28;20716;-68
2020/12/31 06:43:07;;;;;;;6.55;3.97;;;;;;;0.31;nan;95397.88;4931859;28;20711;-68
2020/12/31 06:45:43;;;;;;;5.93;3.92;;;;;;;0.37;nan;95408.69;4936063;28;20191;-67
2020/12/31 06:48:37;;;;;;;8.43;3.67;;;;;;;0.39;nan;95404.31;4931826;28;20787;-67
2020/12/31 06:51:08;;;;;;;6.78;3.88;;;;;;;0.41;nan;95407.69;4935791;28;20807;-67
2020/12/31 06:53:38;;;;;;;10.38;4.72;;;;;;;0.43;nan;95408.44;4937318;28;20733;-67
2020/12/31 06:56:06;;;;;;;8.52;3.42;;;;;;;0.46;nan;95404.91;4931854;28;20586;-67
2020/12/31 06:58:34;;;;;;;7.40;3.83;;;;;;;0.51;nan;95401.25;4936874;28;20765;-67
2020/12/31 07:01:22;;;;;;;5.95;3.63;;;;;;;0.48;nan;95406.53;4936609;28;20909;-67
2020/12/31 07:03:48;;;;;;;6.80;4.35;;;;;;;0.55;nan;95399.41;4937120;28;20682;-67
2020/12/31 07:06:32;;;;;;;7.90;4.07;;;;;;;0.58;nan;95402.66;4936213;28;20569;-67
2020/12/31 07:09:02;;;;;;;6.30;3.42;;;;;;;0.63;nan;95405.88;4937043;28;20207;-68
2020/12/31 07:11:36;;;;;;;5.82;3.67;;;;;;;0.67;nan;95397.16;4935993;28;20580;-68
2020/12/31 07:14:19;;;;;;;7.60;4.43;;;;;;;0.68;nan;95393.69;4937202;28;20708;-68
2020/12/31 07:16:55;;;;;;;8.82;4.63;;;;;;;0.72;nan;95394.38;4939828;28;20223;-68
2020/12/31 07:19:23;;;;;;;7.05;3.85;;;;;;;0.75;nan;95405.31;4939550;28;20888;-69
2020/12/31 07:21:51;;;;;;;9.25;4.15;;;;;;;0.79;nan;95398.34;4934716;28;20250;-68
2020/12/31 07:24:22;;;;;;;7.93;4.68;;;;;;;0.79;nan;95401.75;4941621;28;20714;-68
2020/12/31 07:26:50;;;;;;;5.93;3.63;;;;;;;0.80;nan;95403.41;4939799;28;20734;-69
2020/12/31 07:29:29;;;;;;;9.52;5.93;;;;;;;0.75;nan;95379.72;4939942;28;20294;-68
2020/12/31 07:31:57;;;;;;;11.20;3.50;;;;;;;0.83;nan;95387.91;4939873;28;20310;-69
2020/12/31 07:34:26;;;;;;;6.82;4.10;;;;;;;0.81;nan;95397.38;4952160;28;20326;-71
2020/12/31 07:36:58;;;;;;;5.30;3.33;;;;;;;0.81;nan;95394.81;4941666;28;20257;-69
2020/12/31 07:39:25;;;;;;;12.77;5.20;;;;;;;0.86;nan;95392.91;4939712;28;20508;-68
2020/12/31 07:42:08;;;;;;;7.05;3.85;;;;;;;0.91;nan;95396.09;4939198;28;20716;-68
2020/12/31 07:44:35;;;;;;;8.15;4.03;;;;;;;0.92;nan;95395.19;4939907;28;20293;-68
2020/12/31 07:47:03;;;;;;;8.00;4.50;;;;;;;0.94;nan;95395.94;4940475;28;20629;-68
2020/12/31 07:49:43;;;;;;;9.68;4.85;;;;;;;0.93;nan;95394.28;4939415;28;20336;-67
2020/12/31 07:52:10;;;;;;;7.20;4.93;;;;;;;0.97;nan;95388.13;4936870;28;20613;-69
2020/12/31 07:54:36;;;;;;;17.10;5.05;;;;;;;1.01;nan;95393.94;4939423;28;20272;-68
2020/12/31 07:57:04;;;;;;;7.78;4.70;;;;;;;1.07;nan;95388.53;4940703;28;20629;-69
2020/12/31 07:59:31;;;;;;;6.50;4.40;;;;;;;1.05;nan;95388.59;4941898;28;20258;-69
2020/12/31 08:02:06;;;;;;;10.65;4.93;;;;;;;1.09;nan;95387.59;4940396;28;20765;-71
2020/12/31 08:04:34;;;;;;;7.25;5.40;;;;;;;1.12;nan;95387.44;4938952;28;20693;-68
2020/12/31 08:07:13;;;;;;;7.13;4.75;;;;;;;1.29;nan;95387.53;4939612;28;20611;-69
2020/12/31 08:09:41;;;;;;;9.93;4.60;;;;;;;1.43;nan;95386.88;4939336;28;20365;-67
2020/12/31 08:12:12;;;;;;;7.53;4.38;;;;;;;1.26;nan;95384.25;4939918;28;20301;-67
2020/12/31 08:14:40;;;;;;;8.50;5.20;;;;;;;1.21;nan;95384.47;4941468;28;20258;-67
2020/12/31 08:17:08;;;;;;;5.60;3.95;;;;;;;1.18;nan;95384.59;4937499;28;20599;-67
2020/12/31 08:19:37;;;;;;;7.82;4.40;;;;;;;1.23;nan;95384.38;4944943;28;20294;-67
2020/12/31 08:22:19;;;;;;;8.45;4.43;;;;;;;1.14;nan;95377.97;4936915;28;20701;-67
2020/12/31 08:24:56;;;;;;;6.93;4.38;;;;;;;1.07;nan;95358.66;4945498;28;20314;-66
2020/12/31 08:27:24;;;;;;;8.73;5.10;;;;;;;1.20;nan;95384.53;4938294;28;20680;-67
2020/12/31 08:29:53;;;;;;;10.48;5.93;;;;;;;1.20;nan;95382.78;4939487;28;20508;-67
2020/12/31 08:32:27;;;;;;;14.88;5.60;;;;;;;1.18;nan;95384.59;4947696;28;20890;-67
2020/12/31 08:34:58;;;;;;;7.72;4.60;;;;;;;1.19;nan;95375.19;4936509;28;20254;-67
2020/12/31 08:37:27;;;;;;;7.05;4.93;;;;;;;1.19;nan;95385.44;4938043;28;20346;-67
2020/12/31 08:39:56;;;;;;;10.45;5.45;;;;;;;1.14;nan;95375.41;4943915;28;20298;-67
2020/12/31 08:42:24;;;;;;;14.32;7.28;;;;;;;1.16;nan;95378.72;4938113;28;20589;-67
2020/12/31 08:44:54;;;;;;;7.35;4.95;;;;;;;1.15;nan;95377.06;4938015;28;20195;-67
2020/12/31 08:47:22;;;;;;;10.10;3.85;;;;;;;1.19;nan;95380.31;4938332;28;20532;-67
2020/12/31 08:49:53;;;;;;;7.47;4.47;;;;;;;1.15;nan;95379.63;4936906;28;20686;-67
2020/12/31 08:52:27;;;;;;;10.35;5.40;;;;;;;1.21;nan;95379.34;4938486;28;20250;-67
2020/12/31 08:55:11;;;;;;;8.10;4.90;;;;;;;1.26;nan;95385.06;4941055;28;20203;-67
2020/12/31 08:57:39;;;;;;;9.65;5.57;;;;;;;1.29;nan;95382.41;4938821;28;20854;-67
2020/12/31 09:00:07;;;;;;;10.68;5.05;;;;;;;1.36;nan;95388.91;4934280;28;20742;-68
2020/12/31 09:02:34;;;;;;;9.90;5.47;;;;;;;1.35;nan;95386.41;4936811;28;20289;-67
2020/12/31 09:05:13;;;;;;;6.70;4.10;;;;;;;1.34;nan;95380.44;4937659;28;20262;-67
2020/12/31 09:07:41;;;;;;;7.53;4.13;;;;;;;1.33;nan;95386.47;4946721;28;20255;-68
2020/12/31 09:10:12;;;;;;;9.30;3.67;;;;;;;1.32;nan;95382.25;4938497;28;20704;-67
2020/12/31 09:12:39;;;;;;;8.25;5.45;;;;;;;1.33;nan;95383.09;4937769;28;20582;-66
2020/12/31 09:15:06;;;;;;;6.90;4.70;;;;;;;1.37;nan;95388.00;4933425;28;20235;-67
2020/12/31 09:17:33;;;;;;;9.90;3.70;;;;;;;1.46;nan;95385.00;4936722;28;20729;-67
2020/12/31 09:20:00;;;;;;;6.35;4.45;;;;;;;1.50;nan;95381.41;4937145;28;20645;-69
2020/12/31 09:22:28;;;;;;;11.98;4.45;;;;;;;1.48;nan;95387.50;4936465;28;20297;-67
2020/12/31 09:24:55;;;;;;;7.35;4.00;;;;;;;1.49;nan;95377.16;4939372;28;20574;-67
2020/12/31 09:27:23;;;;;;;6.70;3.78;;;;;;;1.48;nan;95379.81;4936610;28;20697;-69
2020/12/31 09:29:57;;;;;;;11.38;5.43;;;;;;;1.58;nan;95387.00;4934594;28;20250;-67
2020/12/31 09:32:24;;;;;;;9.85;5.45;;;;;;;1.54;nan;95382.09;4936489;28;20795;-69
2020/12/31 09:34:51;;;;;;;7.75;4.63;;;;;;;1.48;nan;95372.94;4936009;28;20319;-67
2020/12/31 09:37:18;;;;;;;6.70;4.57;;;;;;;1.52;nan;95374.47;4944808;28;20309;-68
2020/12/31 09:39:46;;;;;;;9.43;5.43;;;;;;;1.43;nan;95377.47;4939739;28;20282;-66
2020/12/31 09:42:13;;;;;;;10.00;6.07;;;;;;;1.39;nan;95370.00;4941239;28;20681;-67
2020/12/31 09:44:41;;;;;;;8.85;4.78;;;;;;;1.21;nan;95348.59;4942183;28;20325;-67
2020/12/31 09:47:08;;;;;;;4.43;3.17;;;;;;;1.40;nan;95369.91;4935827;28;20333;-67
2020/12/31 09:49:35;;;;;;;9.05;4.85;;;;;;;1.32;nan;95366.06;4938728;28;20555;-66
2020/12/31 09:52:02;;;;;;;5.68;4.18;;;;;;;1.29;nan;95361.06;4939893;28;20265;-67
2020/12/31 09:54:29;;;;;;;8.40;5.28;;;;;;;1.38;nan;95361.47;4937615;28;20207;-67
2020/12/31 09:56:57;;;;;;;8.45;4.70;;;;;;;1.37;nan;95336.75;4945463;28;20302;-67
2020/12/31 09:59:24;;;;;;;7.57;4.60;;;;;;;1.55;nan;95353.81;4936971;28;20199;-67
2020/12/31 10:01:51;;;;;;;12.10;5.40;;;;;;;1.65;nan;95349.94;4936861;28;20925;-68
2020/12/31 10:04:18;;;;;;;9.65;6.05;;;;;;;1.80;nan;95350.91;4937570;28;20603;-67
2020/12/31 10:06:46;;;;;;;9.05;4.25;;;;;;;1.87;nan;95345.44;4941385;28;20223;-67
2020/12/31 10:09:15;;;;;;;6.75;4.43;;;;;;;1.80;nan;95340.66;4942710;28;20203;-67
2020/12/31 10:11:45;;;;;;;8.95;4.65;;;;;;;1.73;nan;95342.69;4947031;28;20532;-67
2020/12/31 10:14:13;;;;;;;9.15;5.13;;;;;;;1.66;nan;95333.63;4941750;28;20311;-67
2020/12/31 10:16:39;;;;;;;7.68;4.97;;;;;;;1.61;nan;95338.13;4943980;28;20822;-68
2020/12/31 10:19:06;;;;;;;9.02;3.78;;;;;;;1.56;nan;95334.13;4936975;28;20225;-67
2020/12/31 10:21:33;;;;;;;9.52;5.40;;;;;;;1.55;nan;95330.72;4935956;28;20294;-67
2020/12/31 10:24:00;;;;;;;10.95;5.60;;;;;;;1.52;nan;95336.03;4936506;28;20747;-66
2020/12/31 10:26:27;;;;;;;11.32;5.10;;;;;;;1.60;nan;95330.50;4934939;28;20286;-68
2020/12/31 10:28:54;;;;;;;7.38;4.88;;;;;;;1.53;nan;95330.00;4938186;28;20382;-67
2020/12/31 10:31:21;;;;;;;9.00;5.15;;;;;;;1.49;nan;95328.47;4941536;28;20211;-67
2020/12/31 10:33:48;;;;;;;8.60;4.72;;;;;;;1.57;nan;95321.25;4938645;28;20200;-67
2020/12/31 10:36:15;;;;;;;9.30;6.40;;;;;;;1.54;nan;95313.69;4940849;28;20669;-69
2020/12/31 10:38:42;;;;;;;8.40;5.25;;;;;;;1.66;nan;95327.66;4942610;28;20231;-67
2020/12/31 10:41:13;;;;;;;10.57;5.57;;;;;;;1.69;nan;95315.53;4936845;28;20690;-67
2020/12/31 10:43:40;;;;;;;7.82;5.18;;;;;;;1.69;nan;95314.72;4936779;28;20664;-67
2020/12/31 10:46:11;;;;;;;14.05;5.25;;;;;;;1.79;nan;95308.22;4935816;28;20242;-67
2020/12/31 10:48:40;;;;;;;9.95;5.20;;;;;;;1.80;nan;95302.19;4944776;28;20231;-67
2020/12/31 10:51:06;;;;;;;10.00;5.50;;;;;;;1.89;nan;95307.69;4937547;28;20604;-67
2020/12/31 10:53:33;;;;;;;8.95;4.63;;;;;;;1.91;nan;95298.19;4940452;28;20314;-67
2020/12/31 10:56:01;;;;;;;7.65;4.45;;;;;;;2.03;nan;95299.31;4941334;28;20204;-67
2020/12/31 10:58:27;;;;;;;6.15;4.15;;;;;;;2.02;nan;95293.38;4940082;28;20398;-69
2020/12/31 11:00:54;;;;;;;10.05;4.40;;;;;;;2.04;nan;95301.81;4942207;28;20229;-69
2020/12/31 11:03:21;;;;;;;9.20;4.70;;;;;;;2.02;nan;95283.09;4944189;28;20253;-69
2020/12/31 11:05:49;;;;;;;7.13;4.40;;;;;;;2.10;nan;95288.69;4937701;28;20574;-69
2020/12/31 11:08:16;;;;;;;6.50;3.60;;;;;;;2.11;nan;95269.81;4941720;28;20568;-69
2020/12/31 11:10:43;;;;;;;5.55;4.00;;;;;;;2.30;nan;95272.25;4943595;28;20582;-69
2020/12/31 11:13:10;;;;;;;8.20;4.50;;;;;;;2.50;nan;95272.06;4939804;28;20624;-69
2020/12/31 11:15:36;;;;;;;7.68;4.93;;;;;;;2.63;nan;95266.19;4940711;28;20283;-67
2020/12/31 11:18:03;;;;;;;11.57;4.93;;;;;;;2.71;nan;95258.91;4939750;28;20351;-67
2020/12/31 11:20:30;;;;;;;7.25;4.18;;;;;;;2.83;nan;95257.44;4944358;28;20518;-67
2020/12/31 11:22:58;;;;;;;9.85;4.07;;;;;;;3.00;nan;95265.09;4938644;28;20303;-67
2020/12/31 11:25:24;;;;;;;9.73;4.10;;;;;;;3.13;nan;95251.47;4940224;28;20203;-67
2020/12/31 11:27:52;;;;;;;10.98;5.60;;;;;;;3.26;nan;95247.31;4940681;28;20662;-67
2020/12/31 11:30:19;;;;;;;7.22;2.83;;;;;;;3.09;nan;95234.56;4945614;28;20207;-70
2020/12/31 11:32:46;;;;;;;7.30;4.38;;;;;;;3.14;nan;95258.28;4935370;28;20819;-69
2020/12/31 11:35:13;;;;;;;9.85;3.83;;;;;;;3.28;nan;95247.22;4940106;28;20294;-69
2020/12/31 11:37:39;;;;;;;9.02;3.47;;;;;;;3.31;nan;95252.19;4939815;28;20294;-69
2020/12/31 11:40:07;;;;;;;8.02;3.67;;;;;;;3.25;nan;95235.38;4947544;28;20635;-69
2020/12/31 11:42:35;;;;;;;8.23;2.78;;;;;;;3.25;nan;95240.53;4939340;28;20224;-69
2020/12/31 11:45:03;;;;;;;4.60;3.17;;;;;;;3.28;nan;95232.63;4943796;28;20199;-69
2020/12/31 11:47:30;;;;;;;4.85;3.33;;;;;;;3.34;nan;95234.03;4938755;28;20335;-69
2020/12/31 11:49:57;;;;;;;4.40;3.15;;;;;;;3.15;nan;95252.22;4945484;28;20195;-69
2020/12/31 11:52:24;;;;;;;8.25;4.20;;;;;;;3.11;nan;95226.75;4939190;28;20314;-69
2020/12/31 11:54:51;;;;;;;5.25;3.50;;;;;;;3.09;nan;95219.13;4938674;28;20203;-70
2020/12/31 11:57:18;;;;;;;5.22;3.10;;;;;;;3.11;nan;95222.47;4939751;28;20297;-69
2020/12/31 11:59:45;;;;;;;6.15;3.58;;;;;;;3.31;nan;95217.03;4945736;28;20690;-69
2020/12/31 12:02:13;;;;;;;4.88;3.65;;;;;;;3.36;nan;95220.19;4938215;28;20642;-70
2020/12/31 12:04:40;;;;;;;5.32;3.60;;;;;;;3.47;nan;95215.28;4940084;28;20665;-69